Time;durP1;ratioP1;P1;durP2;ratioP2;P2;SDS_P1;SDS_P2;PMS_P1;PMS_P2;Temp;Humidity;BMP_temperature;BMP_pressure;BME280_temperature;BME280_humidity;BME280_pressure;Samples;Min_cycle;Max_cycle;Signal;HPM_P1;HPM_P2
2023/09/02 00:00:58;;;;;;;8.20;4.50;;;;;;;13.90;100.00;99974.80;109465;1251;60012;-74
2023/09/02 00:03:26;;;;;;;10.30;4.20;;;;;;;13.87;100.00;99965.41;109445;1251;74641;-73
2023/09/02 00:05:53;;;;;;;6.20;3.90;;;;;;;13.86;100.00;99958.23;109448;1251;70767;-74
2023/09/02 00:08:21;;;;;;;6.50;4.40;;;;;;;13.82;100.00;99961.90;109495;1251;72656;-74
2023/09/02 00:10:48;;;;;;;7.80;5.10;;;;;;;13.76;100.00;99963.20;109395;1251;60069;-74
2023/09/02 00:13:16;;;;;;;5.60;4.30;;;;;;;13.71;100.00;99959.52;109401;1251;59068;-74
2023/09/02 00:15:44;;;;;;;5.00;4.50;;;;;;;13.68;100.00;99963.48;109437;1251;74630;-73
2023/09/02 00:18:11;;;;;;;7.70;5.30;;;;;;;13.65;100.00;99965.39;109407;1251;69769;-73
2023/09/02 00:20:39;;;;;;;8.90;4.70;;;;;;;13.62;100.00;99972.89;109393;1251;70640;-74
2023/09/02 00:23:06;;;;;;;8.60;5.00;;;;;;;13.60;100.00;99974.06;109434;1251;59312;-74
2023/09/02 00:25:34;;;;;;;7.50;4.50;;;;;;;13.56;100.00;99972.27;109431;1251;58928;-74
2023/09/02 00:28:01;;;;;;;6.20;4.40;;;;;;;13.53;100.00;99972.04;109466;1251;74637;-74
2023/09/02 00:30:29;;;;;;;8.90;4.70;;;;;;;13.49;100.00;99971.85;109469;1251;69582;-74
2023/09/02 00:32:56;;;;;;;7.00;5.20;;;;;;;13.46;100.00;99969.86;109360;1251;71423;-73
2023/09/02 00:35:24;;;;;;;9.30;5.40;;;;;;;13.42;100.00;99975.45;109439;1251;60575;-74
2023/09/02 00:37:52;;;;;;;9.10;5.10;;;;;;;13.39;100.00;99974.86;109457;1251;60514;-73
2023/09/02 00:40:19;;;;;;;9.50;5.20;;;;;;;13.36;100.00;99973.94;109382;1254;74714;-74
2023/09/02 00:42:47;;;;;;;9.40;5.60;;;;;;;13.33;100.00;99975.79;109246;1251;70943;-74
2023/09/02 00:45:15;;;;;;;9.40;5.50;;;;;;;13.33;100.00;99979.52;109403;1251;72782;-74
2023/09/02 00:47:43;;;;;;;9.10;6.10;;;;;;;13.30;100.00;99980.48;109411;1251;60616;-74
2023/09/02 00:50:10;;;;;;;16.10;6.90;;;;;;;13.26;100.00;99985.21;108947;1253;322141;-74
2023/09/02 00:52:38;;;;;;;11.00;5.90;;;;;;;13.24;100.00;99983.02;109447;1253;73986;-74
2023/09/02 00:55:05;;;;;;;11.20;6.10;;;;;;;13.22;100.00;99983.42;109470;1251;71715;-74
2023/09/02 00:57:33;;;;;;;12.80;5.70;;;;;;;13.20;100.00;99984.20;109427;1251;71742;-74
2023/09/02 01:00:01;;;;;;;11.90;6.00;;;;;;;13.18;100.00;99976.34;109356;1253;60462;-74
2023/09/02 01:02:29;;;;;;;10.70;5.80;;;;;;;13.14;100.00;99974.21;109436;1251;59233;-73
2023/09/02 01:04:57;;;;;;;13.10;6.30;;;;;;;13.11;100.00;99972.58;109406;1251;72382;-74
2023/09/02 01:20:28;;;;;;;9.50;6.10;;;;;;;13.39;100.00;99980.16;103484;1285;613492;-74
2023/09/02 01:23:11;;;;;;;11.30;6.60;;;;;;;13.48;100.00;99979.83;105594;1267;358439;-75
2023/09/02 01:25:51;;;;;;;10.10;6.00;;;;;;;13.42;100.00;99982.15;105146;1269;59203;-74
2023/09/02 01:28:21;;;;;;;8.90;6.20;;;;;;;13.36;100.00;99984.34;105164;1266;72304;-74
2023/09/02 01:30:48;;;;;;;8.60;6.10;;;;;;;13.30;100.00;99983.48;104455;1266;1002651;-75
2023/09/02 01:33:16;;;;;;;7.80;5.80;;;;;;;13.23;100.00;99988.85;105122;1271;71556;-77
2023/09/02 01:35:44;;;;;;;10.70;5.80;;;;;;;13.17;100.00;99985.03;105162;1268;60388;-76
2023/09/02 01:38:12;;;;;;;10.30;6.00;;;;;;;13.10;100.00;99983.52;105213;1266;59292;-75
2023/09/02 01:40:40;;;;;;;8.60;6.50;;;;;;;13.04;100.00;99986.91;105160;1266;70786;-75
2023/09/02 01:43:07;;;;;;;9.50;5.70;;;;;;;12.98;100.00;99987.83;105206;1269;71142;-75
2023/09/02 01:45:35;;;;;;;11.40;6.10;;;;;;;12.93;100.00;99993.48;105147;1270;70346;-75
2023/09/02 01:48:03;;;;;;;9.60;6.30;;;;;;;12.88;100.00;99992.62;105082;1271;60457;-75
2023/09/02 01:50:32;;;;;;;9.20;6.70;;;;;;;12.80;100.00;99995.88;105181;1270;59711;-74
2023/09/02 01:53:00;;;;;;;8.50;5.80;;;;;;;12.75;100.00;99995.73;105598;1267;73050;-75
2023/09/02 01:55:27;;;;;;;11.20;6.10;;;;;;;12.72;100.00;99995.47;106664;1264;69988;-75
2023/09/02 01:57:56;;;;;;;8.60;5.40;;;;;;;12.70;100.00;99995.91;105614;1269;72122;-76
2023/09/02 02:00:23;;;;;;;9.50;5.70;;;;;;;12.67;100.00;99997.78;105185;1267;61726;-75
2023/09/02 02:02:54;;;;;;;9.00;5.90;;;;;;;12.62;100.00;99998.45;105213;1266;59682;-76
2023/09/02 02:05:42;;;;;;;7.90;6.00;;;;;;;12.57;100.00;100002.48;105553;1271;73075;-73
2023/09/02 02:08:18;;;;;;;8.20;5.90;;;;;;;12.54;100.00;100000.52;103632;1265;1003196;-73
2023/09/02 02:10:46;;;;;;;9.70;5.70;;;;;;;12.51;100.00;100003.79;105662;1268;72637;-76
2023/09/02 02:13:13;;;;;;;6.90;5.40;;;;;;;12.47;100.00;100003.05;106263;1266;60104;-75
2023/09/02 02:15:41;;;;;;;10.10;5.50;;;;;;;12.43;100.00;100008.98;105928;1268;59590;-75
2023/09/02 02:18:09;;;;;;;10.90;6.40;;;;;;;12.40;100.00;100009.42;105209;1264;73031;-75
2023/09/02 02:20:45;;;;;;;10.30;6.40;;;;;;;12.38;100.00;100011.10;105539;1269;69760;-74
2023/09/02 02:23:13;;;;;;;9.80;7.00;;;;;;;12.37;100.00;100014.63;105520;1266;71516;-75
2023/09/02 02:25:40;;;;;;;14.10;8.20;;;;;;;12.37;100.00;100014.65;105516;1258;59732;-75
2023/09/02 02:28:08;;;;;;;11.90;7.90;;;;;;;12.36;100.00;100018.89;107351;1257;60019;-74
2023/09/02 02:30:35;;;;;;;11.00;6.70;;;;;;;12.36;100.00;100020.14;105543;1258;73074;-76
2023/09/02 02:33:03;;;;;;;9.50;6.00;;;;;;;12.36;100.00;100021.16;105525;1263;69930;-74
2023/09/02 02:35:34;;;;;;;10.40;5.50;;;;;;;12.36;100.00;100017.85;105869;1259;72557;-74
2023/09/02 02:38:02;;;;;;;11.80;7.20;;;;;;;12.33;100.00;100018.64;106618;1259;60090;-74
2023/09/02 02:40:30;;;;;;;13.80;7.80;;;;;;;12.30;100.00;100019.98;105846;1260;59718;-75
2023/09/02 02:42:57;;;;;;;12.70;7.70;;;;;;;12.28;100.00;100023.20;105936;1254;73491;-75
2023/09/02 02:45:25;;;;;;;8.90;7.10;;;;;;;12.26;100.00;100030.14;105865;1258;69657;-74
2023/09/02 02:47:53;;;;;;;12.30;8.00;;;;;;;12.22;100.00;100038.70;105880;1266;71371;-74
2023/09/02 02:50:20;;;;;;;12.80;8.10;;;;;;;12.18;100.00;100042.88;105890;1253;59739;-75
2023/09/02 02:52:49;;;;;;;12.40;8.60;;;;;;;12.16;100.00;100044.52;105721;1259;60482;-75
2023/09/02 02:55:17;;;;;;;10.90;7.50;;;;;;;12.16;100.00;100046.09;105830;1260;72987;-75
2023/09/02 02:57:45;;;;;;;12.10;6.30;;;;;;;12.17;100.00;100051.71;106206;1253;70194;-75
2023/09/02 03:00:13;;;;;;;12.00;6.90;;;;;;;12.16;100.00;100054.55;106015;1258;70694;-75
2023/09/02 03:02:41;;;;;;;12.20;7.30;;;;;;;12.15;100.00;100051.58;105746;1253;60087;-75
2023/09/02 03:05:09;;;;;;;8.90;6.60;;;;;;;12.15;100.00;100052.27;106004;1258;60661;-75
2023/09/02 03:07:39;;;;;;;12.20;6.70;;;;;;;12.15;100.00;100053.51;106255;1255;72168;-74
2023/09/02 03:10:07;;;;;;;11.80;6.70;;;;;;;12.14;100.00;100048.45;106292;1258;71229;-75
2023/09/02 03:12:35;;;;;;;10.30;6.80;;;;;;;12.12;100.00;100045.38;105926;1259;72772;-74
2023/09/02 03:15:04;;;;;;;13.40;6.30;;;;;;;12.12;100.00;100043.62;106418;1258;59763;-75
2023/09/02 03:17:32;;;;;;;9.50;6.20;;;;;;;12.11;100.00;100042.23;107085;1254;60032;-76
2023/09/02 03:20:00;;;;;;;7.80;6.30;;;;;;;12.10;100.00;100040.67;105967;1259;71928;-75
2023/09/02 03:22:30;;;;;;;10.20;6.30;;;;;;;12.10;100.00;100040.87;105949;1259;71257;-75
2023/09/02 03:24:57;;;;;;;8.80;6.00;;;;;;;12.07;100.00;100039.89;106181;1261;72638;-74
2023/09/02 03:27:26;;;;;;;9.70;6.50;;;;;;;12.06;100.00;100042.41;105922;1260;60244;-75
2023/09/02 03:29:55;;;;;;;11.70;6.80;;;;;;;12.05;100.00;100044.71;106014;1259;59512;-75
2023/09/02 03:32:26;;;;;;;8.50;6.70;;;;;;;12.04;100.00;100039.46;106138;1255;72034;-76
2023/09/02 03:34:54;;;;;;;9.40;7.20;;;;;;;12.05;100.00;100042.59;107403;1254;69614;-76
2023/09/02 03:37:22;;;;;;;11.50;6.50;;;;;;;12.06;100.00;100046.27;106333;1261;72713;-77
2023/09/02 03:39:50;;;;;;;7.90;6.60;;;;;;;12.09;100.00;100046.86;107596;1253;62089;-74
2023/09/02 03:42:17;;;;;;;10.10;6.10;;;;;;;12.12;100.00;100048.89;106202;1260;60062;-76
2023/09/02 03:44:45;;;;;;;9.40;6.70;;;;;;;12.14;100.00;100050.23;105815;1259;73059;-76
2023/09/02 03:47:13;;;;;;;12.30;8.00;;;;;;;12.16;100.00;100056.66;105713;1260;70257;-76
2023/09/02 03:49:41;;;;;;;10.60;8.30;;;;;;;12.17;100.00;100059.45;106168;1255;72774;-75
2023/09/02 03:52:09;;;;;;;14.50;7.20;;;;;;;12.21;100.00;100066.16;105915;1254;61647;-74
2023/09/02 03:54:38;;;;;;;13.70;7.40;;;;;;;12.24;100.00;100066.23;105921;1254;59992;-74
2023/09/02 03:57:06;;;;;;;11.60;7.20;;;;;;;12.28;100.00;100070.33;105867;1257;73192;-74
2023/09/02 03:59:33;;;;;;;9.90;7.20;;;;;;;12.33;100.00;100070.19;105807;1260;70781;-75
2023/09/02 04:02:01;;;;;;;13.00;7.30;;;;;;;12.37;100.00;100068.98;105764;1255;72038;-75
2023/09/02 04:04:30;;;;;;;12.50;8.10;;;;;;;12.42;100.00;100072.01;106312;1257;61139;-74
2023/09/02 04:06:58;;;;;;;15.40;7.50;;;;;;;12.47;100.00;100070.09;105904;1254;59973;-75
2023/09/02 04:09:25;;;;;;;11.20;7.30;;;;;;;12.50;100.00;100071.38;105983;1259;73131;-75
2023/09/02 04:11:52;;;;;;;10.80;6.90;;;;;;;12.54;100.00;100077.39;105960;1254;69482;-75
2023/09/02 04:14:20;;;;;;;11.10;6.50;;;;;;;12.58;100.00;100076.72;106429;1254;71425;-74
2023/09/02 04:16:48;;;;;;;9.60;7.10;;;;;;;12.63;100.00;100075.68;107020;1259;59725;-74
2023/09/02 04:19:17;;;;;;;8.50;7.70;;;;;;;12.68;100.00;100077.45;107003;1258;59969;-75
2023/09/02 04:21:46;;;;;;;15.40;7.70;;;;;;;12.74;100.00;100085.16;106333;1260;73392;-76
2023/09/02 04:24:14;;;;;;;9.50;7.70;;;;;;;12.80;100.00;100088.67;106257;1269;70135;-76
2023/09/02 04:26:42;;;;;;;8.20;6.90;;;;;;;12.84;100.00;100087.65;105775;1254;71426;-75
2023/09/02 04:29:09;;;;;;;9.70;7.00;;;;;;;12.90;100.00;100089.38;106377;1258;59795;-75
2023/09/02 04:31:37;;;;;;;8.20;7.00;;;;;;;12.95;100.00;100093.61;106288;1254;59660;-75
2023/09/02 04:34:05;;;;;;;12.50;7.80;;;;;;;13.01;100.00;100093.04;106123;1259;71797;-75
2023/09/02 04:36:32;;;;;;;18.30;9.10;;;;;;;13.07;100.00;100090.02;106271;1254;71152;-75
2023/09/02 04:39:06;;;;;;;33.70;16.90;;;;;;;13.11;100.00;100095.33;106477;1254;71437;-74
2023/09/02 04:41:36;;;;;;;34.80;16.80;;;;;;;13.16;100.00;100096.20;106254;1258;60035;-74
2023/09/02 04:50:07;;;;;;;24.00;12.00;;;;;;;13.35;100.00;100107.54;102782;1291;601426;-75
2023/09/02 04:52:35;;;;;;;28.40;11.90;;;;;;;13.39;100.00;100102.83;105557;1267;59170;-75
2023/09/02 04:55:03;;;;;;;25.70;10.90;;;;;;;13.47;100.00;100106.92;104947;1266;59556;-75
2023/09/02 04:57:33;;;;;;;22.60;10.00;;;;;;;13.58;100.00;100109.68;105176;1270;72499;-76
2023/09/02 05:00:00;;;;;;;16.10;9.10;;;;;;;13.68;100.00;100109.98;104909;1267;70941;-76
2023/09/02 05:02:29;;;;;;;16.90;9.80;;;;;;;13.78;100.00;100107.15;104949;1267;71829;-76
2023/09/02 05:04:56;;;;;;;15.40;10.20;;;;;;;13.88;100.00;100106.27;105439;1270;248554;-75
2023/09/02 05:07:24;;;;;;;17.00;10.00;;;;;;;13.98;100.00;100104.44;106024;1263;59311;-74
2023/09/02 05:09:53;;;;;;;22.90;11.70;;;;;;;14.06;100.00;100102.36;105904;1262;72434;-74
2023/09/02 05:12:21;;;;;;;16.60;11.60;;;;;;;14.15;100.00;100101.47;106373;1262;68748;-75
2023/09/02 05:14:49;;;;;;;25.70;15.40;;;;;;;14.25;100.00;100100.54;106307;1268;72084;-76
2023/09/02 05:17:17;;;;;;;30.80;16.80;;;;;;;14.35;100.00;100100.31;105206;1266;60367;-76
2023/09/02 05:19:44;;;;;;;31.50;19.00;;;;;;;14.46;100.00;100099.52;105627;1262;60041;-75
2023/09/02 05:22:11;;;;;;;44.30;25.30;;;;;;;14.57;100.00;100098.58;105691;1264;73481;-75
2023/09/02 05:24:39;;;;;;;44.90;25.00;;;;;;;14.67;100.00;100096.21;106074;1262;71379;-75
2023/09/02 05:27:07;;;;;;;39.40;22.70;;;;;;;14.78;100.00;100095.56;105295;1265;71369;-75
2023/09/02 05:29:34;;;;;;;26.60;16.20;;;;;;;14.92;100.00;100091.45;105277;1262;60113;-75
2023/09/02 05:32:02;;;;;;;28.30;16.00;;;;;;;15.04;100.00;100087.75;105245;1262;60447;-75
2023/09/02 05:34:30;;;;;;;21.60;13.70;;;;;;;15.14;100.00;100082.00;105227;1262;71826;-75
2023/09/02 05:36:59;;;;;;;26.10;15.00;;;;;;;15.27;100.00;100079.14;105882;1262;70308;-75
2023/09/02 05:39:27;;;;;;;22.20;13.80;;;;;;;15.38;100.00;100075.61;105851;1263;72762;-75
2023/09/02 05:41:54;;;;;;;16.90;11.00;;;;;;;15.51;100.00;100077.33;105306;1261;60390;-74
2023/09/02 05:44:22;;;;;;;16.40;9.80;;;;;;;15.66;100.00;100079.82;106027;1263;59702;-75
2023/09/02 05:46:49;;;;;;;14.90;8.10;;;;;;;15.81;100.00;100080.03;105246;1263;71865;-75
2023/09/02 05:49:17;;;;;;;11.10;8.10;;;;;;;15.97;100.00;100077.51;105853;1262;70870;-75
2023/09/02 05:51:46;;;;;;;13.90;6.80;;;;;;;16.12;100.00;100075.55;105958;1260;72508;-76
2023/09/02 05:54:14;;;;;;;10.40;6.60;;;;;;;16.28;100.00;100079.39;105359;1260;59782;-75
2023/09/02 05:56:41;;;;;;;11.90;6.60;;;;;;;16.45;100.00;100073.77;105588;1256;59691;-75
2023/09/02 05:59:09;;;;;;;10.40;5.80;;;;;;;16.62;100.00;100074.52;105657;1260;73145;-75
2023/09/02 06:01:36;;;;;;;8.50;5.70;;;;;;;16.76;100.00;100070.40;105959;1262;69465;-74
2023/09/02 06:04:04;;;;;;;12.00;5.50;;;;;;;16.91;100.00;100061.52;105896;1256;73106;-74
2023/09/02 06:06:32;;;;;;;17.80;5.70;;;;;;;17.05;100.00;100060.63;106343;1256;60091;-76
2023/09/02 06:09:00;;;;;;;13.70;5.50;;;;;;;17.19;100.00;100055.98;106802;1258;59662;-75
2023/09/02 06:11:30;;;;;;;10.10;5.10;;;;;;;17.32;100.00;100058.33;106727;1256;73074;-73
2023/09/02 06:13:57;;;;;;;9.70;4.80;;;;;;;17.45;100.00;100055.31;106115;1257;71089;-75
2023/09/02 06:16:24;;;;;;;7.70;5.00;;;;;;;17.56;100.00;100056.98;106673;1257;71390;-75
2023/09/02 06:18:52;;;;;;;9.00;4.40;;;;;;;17.65;100.00;100051.18;106694;1258;59803;-74
2023/09/02 06:21:20;;;;;;;7.90;4.50;;;;;;;17.74;100.00;100048.20;105572;1262;59651;-74
2023/09/02 06:23:47;;;;;;;15.80;3.60;;;;;;;17.83;100.00;100049.48;105551;1262;73007;-74
2023/09/02 06:26:15;;;;;;;9.80;4.60;;;;;;;17.91;100.00;100041.11;105561;1256;70760;-74
2023/09/02 06:28:46;;;;;;;7.80;4.10;;;;;;;17.98;100.00;100040.15;105585;1256;71757;-74
2023/09/02 06:31:14;;;;;;;10.70;3.90;;;;;;;18.04;100.00;100040.36;105594;1262;59651;-75
2023/09/02 06:33:42;;;;;;;8.30;3.50;;;;;;;18.09;100.00;100041.27;105518;1262;59980;-74
2023/09/02 06:36:10;;;;;;;9.10;5.00;;;;;;;18.17;100.00;100044.92;105943;1256;72976;-74
2023/09/02 06:38:38;;;;;;;8.50;4.00;;;;;;;18.25;100.00;100044.47;106204;1256;69808;-74
2023/09/02 06:41:13;;;;;;;6.90;3.30;;;;;;;18.33;100.00;100039.02;107193;1258;72679;-75
2023/09/02 06:51:21;;;;;;;13.20;3.00;;;;;;;18.77;100.00;100039.10;103202;1292;600234;-73
2023/09/02 06:53:48;;;;;;;5.70;2.70;;;;;;;18.89;100.00;100032.85;105884;1269;59214;-74
2023/09/02 06:56:16;;;;;;;6.30;3.70;;;;;;;19.02;100.00;100026.23;104873;1272;60090;-75
2023/09/02 06:58:43;;;;;;;3.90;2.60;;;;;;;19.12;100.00;100031.85;105154;1266;71318;-74
2023/09/02 07:01:18;;;;;;;5.50;2.20;;;;;;;19.20;100.00;100032.23;105162;1270;70772;-75
2023/09/02 07:03:45;;;;;;;;;;;;;;;19.29;100.00;100025.45;105157;1271;71470;-75
2023/09/02 07:06:13;;;;;;;8.30;2.00;;;;;;;19.39;100.00;100032.67;105122;1268;59377;-75
2023/09/02 07:08:44;;;;;;;5.10;2.10;;;;;;;19.51;100.00;100034.23;105286;1268;60083;-74
2023/09/02 07:11:13;;;;;;;4.40;2.10;;;;;;;19.63;100.00;100034.34;105294;1268;72031;-75
2023/09/02 07:13:45;;;;;;;5.20;2.00;;;;;;;19.73;100.00;100033.03;105328;1263;69628;-74
2023/09/02 07:16:15;;;;;;;2.50;2.00;;;;;;;19.84;100.00;100034.27;106093;1256;70509;-74
2023/09/02 07:18:43;;;;;;;9.30;1.90;;;;;;;19.96;100.00;100036.17;105802;1259;60308;-75
2023/09/02 07:21:11;;;;;;;8.90;2.00;;;;;;;20.05;100.00;100032.91;105908;1257;59819;-76
2023/09/02 07:23:38;;;;;;;3.70;2.10;;;;;;;20.09;100.00;100030.13;106095;1256;73056;-75
2023/09/02 07:26:06;;;;;;;6.50;1.90;;;;;;;20.13;100.00;100028.81;105632;1262;70814;-75
2023/09/02 07:28:36;;;;;;;3.20;1.50;;;;;;;20.22;100.00;100031.22;105731;1261;72637;-74
2023/09/02 07:31:07;;;;;;;6.40;1.50;;;;;;;20.33;100.00;100027.32;106080;1256;60594;-75
2023/09/02 07:33:35;;;;;;;9.20;1.70;;;;;;;20.41;100.00;100026.25;106505;1261;59561;-75
2023/09/02 07:36:15;;;;;;;1.80;1.40;;;;;;;20.48;100.00;100020.98;105726;1256;71751;-74
2023/09/02 07:38:44;;;;;;;3.40;1.80;;;;;;;20.59;100.00;100024.69;105695;1262;69818;-74
2023/09/02 07:41:11;;;;;;;3.70;1.60;;;;;;;20.68;100.00;100021.92;105658;1257;72683;-74
2023/09/02 07:43:39;;;;;;;2.70;1.90;;;;;;;20.78;100.00;100025.00;105768;1262;59827;-74
2023/09/02 07:46:06;;;;;;;2.50;1.90;;;;;;;20.86;100.00;100023.58;106025;1256;60048;-75
2023/09/02 07:48:34;;;;;;;3.20;2.00;;;;;;;20.92;100.00;100020.09;106422;1258;71909;-74
2023/09/02 07:51:02;;;;;;;2.30;1.70;;;;;;;21.01;100.00;100020.93;105643;1261;69816;-75
2023/09/02 07:53:29;;;;;;;1.50;1.40;;;;;;;21.08;100.00;100019.85;105706;1260;72678;-76
2023/09/02 07:55:57;;;;;;;1.70;1.50;;;;;;;21.15;100.00;100020.84;106065;1256;59752;-75
2023/09/02 07:58:24;;;;;;;3.90;2.10;;;;;;;21.26;100.00;100019.34;105700;1257;59778;-75
2023/09/02 08:00:55;;;;;;;4.70;2.00;;;;;;;21.41;100.00;100025.04;106470;1256;73115;-76
2023/09/02 08:03:24;;;;;;;3.40;1.90;;;;;;;21.52;100.00;100021.64;109028;1256;69989;-74
2023/09/02 08:05:52;;;;;;;2.90;2.30;;;;;;;21.59;100.00;100023.27;108987;1255;73021;-73
2023/09/02 08:08:19;;;;;;;4.40;1.90;;;;;;;21.63;100.00;100024.44;108995;1256;60044;-75
2023/09/02 08:10:47;;;;;;;13.60;3.00;;;;;;;21.64;100.00;100023.29;108999;1260;58936;-74
2023/09/02 08:13:14;;;;;;;9.60;2.50;;;;;;;21.63;100.00;100024.79;109026;1256;73072;-74
2023/09/02 08:15:43;;;;;;;4.60;1.70;;;;;;;21.63;100.00;100020.33;109049;1256;71646;-73
2023/09/02 08:18:11;;;;;;;5.30;1.60;;;;;;;21.66;100.00;100020.42;109058;1255;72718;-73
2023/09/02 08:20:38;;;;;;;5.20;1.60;;;;;;;21.74;100.00;100019.48;108986;1256;59028;-73
2023/09/02 08:23:06;;;;;;;2.70;1.80;;;;;;;21.85;100.00;100019.39;109031;1255;58813;-74
2023/09/02 08:25:33;;;;;;;5.70;2.00;;;;;;;21.96;100.00;100020.60;109117;1256;72991;-73
2023/09/02 08:28:01;;;;;;;2.00;1.90;;;;;;;22.07;100.00;100020.61;108930;1255;70011;-73
2023/09/02 08:30:28;;;;;;;2.20;1.90;;;;;;;22.18;100.00;100021.41;109084;1256;70728;-73
2023/09/02 08:32:55;;;;;;;2.30;1.90;;;;;;;22.25;100.00;100021.95;108976;1259;60118;-73
2023/09/02 08:35:23;;;;;;;8.10;2.20;;;;;;;22.29;100.00;100023.18;109097;1255;60006;-73
2023/09/02 08:37:53;;;;;;;4.40;1.70;;;;;;;22.26;100.00;100020.30;109009;1255;73029;-73
2023/09/02 08:40:21;;;;;;;7.30;1.50;;;;;;;22.33;100.00;100017.34;108994;1256;69365;-73
2023/09/02 08:42:48;;;;;;;5.50;1.40;;;;;;;22.50;100.00;100019.22;108933;1258;72690;-73
2023/09/02 08:45:16;;;;;;;7.00;1.60;;;;;;;22.68;100.00;100019.83;109067;1256;59374;-74
2023/09/02 08:47:43;;;;;;;3.80;1.90;;;;;;;22.83;100.00;100019.42;108999;1257;58821;-73
2023/09/02 08:50:11;;;;;;;2.70;1.80;;;;;;;22.90;98.95;100021.74;108922;1255;71712;-74
2023/09/02 08:52:40;;;;;;;4.20;1.60;;;;;;;22.87;93.84;100022.42;109031;1257;70800;-74
2023/09/02 08:55:08;;;;;;;2.00;1.20;;;;;;;22.83;98.05;100018.69;109071;1256;71429;-74
2023/09/02 08:57:39;;;;;;;2.40;1.70;;;;;;;22.90;99.13;100019.58;109009;1255;59176;-73
2023/09/02 09:00:07;;;;;;;1.90;1.40;;;;;;;22.96;96.99;100015.27;109063;1256;59981;-72
2023/09/02 09:02:36;;;;;;;4.10;1.40;;;;;;;23.08;96.90;100014.92;108978;1256;73002;-73
2023/09/02 09:05:04;;;;;;;6.00;1.60;;;;;;;23.23;99.92;100017.33;109031;1255;71120;-73
2023/09/02 09:07:31;;;;;;;2.60;1.40;;;;;;;23.41;99.09;100015.05;108957;1259;72454;-72
2023/09/02 09:09:59;;;;;;;2.20;1.50;;;;;;;23.57;98.81;100014.77;108949;1255;60081;-73
2023/09/02 09:12:32;;;;;;;2.40;1.70;;;;;;;23.71;87.69;100013.23;109037;1255;58857;-72
2023/09/02 09:14:59;;;;;;;7.50;1.90;;;;;;;23.77;88.68;100016.96;109004;1256;71808;-73
2023/09/02 09:17:28;;;;;;;2.70;1.70;;;;;;;23.83;96.12;100020.63;108996;1256;69948;-74
2023/09/02 09:19:56;;;;;;;2.80;2.00;;;;;;;23.93;97.22;100021.05;109045;1256;71441;-73
2023/09/02 09:22:24;;;;;;;3.10;2.10;;;;;;;24.06;89.59;100022.11;108883;1256;58956;-74
2023/09/02 09:24:51;;;;;;;4.60;2.30;;;;;;;24.20;82.78;100018.32;109017;1257;60086;-73
2023/09/02 09:27:19;;;;;;;2.10;1.90;;;;;;;24.26;84.76;100019.77;109085;1256;73130;-73
2023/09/02 09:29:46;;;;;;;2.10;1.50;;;;;;;24.39;90.00;100018.80;109061;1257;71137;-73
2023/09/02 09:32:14;;;;;;;1.90;1.60;;;;;;;24.56;83.17;100009.33;109077;1255;72491;-74
2023/09/02 09:34:43;;;;;;;4.20;1.60;;;;;;;24.70;79.69;100009.21;108251;1255;1002847;-73
2023/09/02 09:37:10;;;;;;;1.70;1.60;;;;;;;24.76;73.72;100010.14;109020;1256;60069;-74
2023/09/02 09:39:48;;;;;;;1.80;1.50;;;;;;;24.77;72.35;100010.46;109062;1257;72066;-74
2023/09/02 09:42:16;;;;;;;3.20;1.60;;;;;;;24.71;75.46;100009.17;108982;1255;71581;-74
2023/09/02 09:44:57;;;;;;;2.00;1.30;;;;;;;24.68;75.89;100005.14;109009;1255;72792;-73
2023/09/02 09:47:25;;;;;;;3.60;1.50;;;;;;;24.70;71.85;100006.60;109000;1255;60053;-73
2023/09/02 09:49:53;;;;;;;1.70;1.40;;;;;;;24.66;71.36;100009.61;109012;1256;58740;-74
2023/09/02 09:52:21;;;;;;;1.60;1.50;;;;;;;24.60;75.98;100008.88;109033;1256;73123;-74
2023/09/02 09:54:52;;;;;;;1.60;1.40;;;;;;;24.53;70.44;100017.29;109022;1256;62241;-73
2023/09/02 09:57:36;;;;;;;3.40;1.50;;;;;;;24.27;69.12;100015.57;108990;1257;72501;-74
2023/09/02 10:00:05;;;;;;;1.60;1.50;;;;;;;23.95;76.02;100020.39;109015;1255;60793;-74
2023/09/02 10:02:33;;;;;;;5.80;1.60;;;;;;;23.80;79.57;100023.56;109111;1256;58820;-73
2023/09/02 10:05:01;;;;;;;2.10;1.50;;;;;;;23.66;79.83;100016.61;108917;1256;71540;-74
2023/09/02 10:07:33;;;;;;;2.50;2.30;;;;;;;23.58;77.09;100017.93;109048;1256;71548;-73
2023/09/02 10:10:05;;;;;;;14.80;10.00;;;;;;;23.54;85.53;100012.52;108990;1256;71553;-73
2023/09/02 10:12:35;;;;;;;3.10;2.30;;;;;;;23.72;94.63;100011.98;109101;1256;60186;-73
2023/09/02 10:15:06;;;;;;;10.20;1.60;;;;;;;24.01;92.96;100013.20;109135;1256;58817;-73
2023/09/02 10:17:35;;;;;;;3.70;1.50;;;;;;;24.27;84.56;100008.21;108272;1256;1002155;-73
2023/09/02 10:20:03;;;;;;;4.40;1.70;;;;;;;24.46;84.10;100011.05;109046;1257;61053;-73
2023/09/02 10:22:31;;;;;;;1.80;1.50;;;;;;;24.60;77.78;100009.20;109070;1256;72638;-74
2023/09/02 10:25:04;;;;;;;5.80;1.50;;;;;;;24.58;77.60;100006.83;108981;1256;58947;-74
2023/09/02 10:27:40;;;;;;;1.70;1.50;;;;;;;24.59;71.63;100006.27;109066;1255;58317;-73
2023/09/02 10:30:16;;;;;;;2.70;1.60;;;;;;;24.63;78.80;100011.43;109046;1256;73059;-73
2023/09/02 10:32:49;;;;;;;1.30;1.20;;;;;;;24.75;74.51;100011.70;108844;1257;69867;-73
2023/09/02 10:35:21;;;;;;;3.50;1.70;;;;;;;24.80;67.83;100012.33;108958;1262;73154;-73
2023/09/02 10:37:50;;;;;;;1.80;1.70;;;;;;;24.80;67.20;100007.27;109010;1256;60191;-73
2023/09/02 10:40:23;;;;;;;1.80;1.70;;;;;;;24.82;68.83;100008.60;109076;1256;60578;-73
2023/09/02 10:42:50;;;;;;;1.80;1.70;;;;;;;24.74;63.92;100006.34;109087;1255;71244;-73
2023/09/02 10:45:18;;;;;;;1.90;1.40;;;;;;;24.62;64.31;100005.23;109001;1256;70748;-74
2023/09/02 10:47:46;;;;;;;2.10;1.50;;;;;;;24.64;69.36;100000.27;109054;1255;72679;-73
2023/09/02 10:50:16;;;;;;;1.40;1.30;;;;;;;24.75;76.55;100000.20;108961;1257;60679;-73
2023/09/02 10:52:43;;;;;;;2.50;1.90;;;;;;;24.88;78.60;99996.25;109008;1261;58697;-73
2023/09/02 10:55:11;;;;;;;5.60;1.80;;;;;;;24.90;83.21;99995.50;109420;1251;64149;-73
2023/09/02 10:57:56;;;;;;;2.20;2.00;;;;;;;24.86;81.13;100001.79;109421;1251;69999;-73
2023/09/02 11:00:25;;;;;;;2.70;1.70;;;;;;;24.83;81.10;100003.08;109413;1251;71399;-74
2023/09/02 11:02:57;;;;;;;2.10;1.90;;;;;;;24.84;85.72;100004.64;109269;1253;58882;-73
2023/09/02 11:05:27;;;;;;;3.80;2.20;;;;;;;24.83;76.95;100004.16;109423;1251;58767;-73
2023/09/02 11:07:55;;;;;;;2.70;1.80;;;;;;;24.74;71.29;100002.94;109446;1251;65053;-73
2023/09/02 11:10:23;;;;;;;4.20;1.60;;;;;;;24.61;68.83;100001.76;109394;1251;70737;-74
2023/09/02 11:13:00;;;;;;;5.70;1.60;;;;;;;24.55;71.30;100002.44;109238;1251;71425;-73
2023/09/02 11:15:31;;;;;;;4.00;1.70;;;;;;;24.49;70.60;99995.92;109379;1251;60138;-73
2023/09/02 11:18:34;;;;;;;4.70;2.20;;;;;;;24.37;73.72;99998.90;109419;1251;60118;-74
2023/09/02 11:21:02;;;;;;;2.30;1.60;;;;;;;24.24;69.58;100002.73;109370;1251;73849;-73
2023/09/02 11:23:29;;;;;;;2.10;1.80;;;;;;;24.24;70.72;99997.88;109423;1251;71101;-74
2023/09/02 11:26:01;;;;;;;4.00;1.80;;;;;;;24.27;70.34;99995.05;109213;1252;72471;-73
2023/09/02 11:28:29;;;;;;;7.50;2.20;;;;;;;24.26;69.62;99995.50;109379;1254;58848;-73
2023/09/02 11:31:12;;;;;;;8.40;1.80;;;;;;;24.18;67.06;99998.58;109418;1251;60060;-73
2023/09/02 11:33:45;;;;;;;2.90;1.90;;;;;;;24.05;68.24;99995.50;109414;1251;72344;-74
2023/09/02 11:36:14;;;;;;;4.30;1.50;;;;;;;23.97;70.79;99995.97;109429;1251;71129;-74
2023/09/02 11:38:42;;;;;;;1.90;1.70;;;;;;;23.94;71.15;99997.16;109380;1253;72777;-72
2023/09/02 11:41:09;;;;;;;2.50;1.70;;;;;;;23.92;74.62;99994.05;109416;1251;58267;-72
2023/09/02 11:43:37;;;;;;;3.10;1.70;;;;;;;23.96;72.18;99990.36;109431;1251;58761;-73